sensor_id;sensor_type;location;lat;lon;timestamp;pressure;altitude;pressure_sealevel;temperature;humidity
67931;BME280;63902;52.000;5.954;2023-02-10T00:00:54;103120.22;;;-0.79;100.00
67931;BME280;63902;52.000;5.954;2023-02-10T00:01:55;103129.03;;;-0.76;100.00
67931;BME280;63902;52.000;5.954;2023-02-10T00:02:55;103123.78;;;-0.77;100.00
67931;BME280;63902;52.000;5.954;2023-02-10T00:03:56;103129.84;;;-0.78;100.00
67931;BME280;63902;52.000;5.954;2023-02-10T00:04:57;103129.84;;;-0.78;100.00
67931;BME280;63902;52.000;5.954;2023-02-10T00:05:57;103132.38;;;-0.80;100.00
67931;BME280;63902;52.000;5.954;2023-02-10T00:06:58;103136.59;;;-0.82;100.00
67931;BME280;63902;52.000;5.954;2023-02-10T00:07:58;103117.91;;;-0.93;100.00
67931;BME280;63902;52.000;5.954;2023-02-10T00:09:00;103130.59;;;-0.81;100.00
67931;BME280;63902;52.000;5.954;2023-02-10T00:10:00;103135.84;;;-0.79;100.00
67931;BME280;63902;52.000;5.954;2023-02-10T00:11:03;103129.75;;;-0.80;100.00
67931;BME280;63902;52.000;5.954;2023-02-10T00:12:04;103132.50;;;-0.77;100.00
67931;BME280;63902;52.000;5.954;2023-02-10T00:13:04;103133.47;;;-0.75;100.00
67931;BME280;63902;52.000;5.954;2023-02-10T00:14:05;103129.25;;;-0.71;100.00
67931;BME280;63902;52.000;5.954;2023-02-10T00:15:06;103136.44;;;-0.65;100.00
67931;BME280;63902;52.000;5.954;2023-02-10T00:16:10;103134.09;;;-0.59;100.00
67931;BME280;63902;52.000;5.954;2023-02-10T00:17:11;103128.19;;;-0.55;100.00
67931;BME280;63902;52.000;5.954;2023-02-10T00:18:12;103130.16;;;-0.50;100.00
67931;BME280;63902;52.000;5.954;2023-02-10T00:19:12;103120.63;;;-0.49;100.00
67931;BME280;63902;52.000;5.954;2023-02-10T00:20:12;103128.66;;;-0.44;100.00
67931;BME280;63902;52.000;5.954;2023-02-10T00:21:15;103121.50;;;-0.49;100.00
67931;BME280;63902;52.000;5.954;2023-02-10T00:22:16;103131.06;;;-0.49;100.00
67931;BME280;63902;52.000;5.954;2023-02-10T00:23:16;103134.50;;;-0.50;100.00
67931;BME280;63902;52.000;5.954;2023-02-10T00:24:17;103131.69;;;-0.55;100.00
67931;BME280;63902;52.000;5.954;2023-02-10T00:25:18;103127.09;;;-0.60;100.00
67931;BME280;63902;52.000;5.954;2023-02-10T00:26:18;103137.56;;;-0.59;100.00
67931;BME280;63902;52.000;5.954;2023-02-10T00:27:19;103125.06;;;-0.68;100.00
67931;BME280;63902;52.000;5.954;2023-02-10T00:28:19;103137.28;;;-0.66;100.00
67931;BME280;63902;52.000;5.954;2023-02-10T00:29:20;103140.66;;;-0.69;100.00
67931;BME280;63902;52.000;5.954;2023-02-10T00:30:20;103144.88;;;-0.71;100.00
67931;BME280;63902;52.000;5.954;2023-02-10T00:31:22;103148.38;;;-0.71;100.00
67931;BME280;63902;52.000;5.954;2023-02-10T00:32:22;103138.66;;;-0.75;100.00
67931;BME280;63902;52.000;5.954;2023-02-10T00:33:23;103149.22;;;-0.72;100.00
67931;BME280;63902;52.000;5.954;2023-02-10T00:34:23;103150.84;;;-0.74;100.00
67931;BME280;63902;52.000;5.954;2023-02-10T00:35:24;103147.28;;;-0.76;100.00
67931;BME280;63902;52.000;5.954;2023-02-10T00:36:24;103150.81;;;-0.75;100.00
67931;BME280;63902;52.000;5.954;2023-02-10T00:37:25;103146.41;;;-0.76;100.00
67931;BME280;63902;52.000;5.954;2023-02-10T00:38:25;103151.69;;;-0.75;100.00
67931;BME280;63902;52.000;5.954;2023-02-10T00:39:26;103147.28;;;-0.76;100.00
67931;BME280;63902;52.000;5.954;2023-02-10T00:40:26;103151.69;;;-0.75;100.00
67931;BME280;63902;52.000;5.954;2023-02-10T00:41:27;103144.75;;;-0.74;100.00
67931;BME280;63902;52.000;5.954;2023-02-10T00:42:27;103149.47;;;-0.65;100.00
67931;BME280;63902;52.000;5.954;2023-02-10T00:43:29;103147.97;;;-0.60;100.00
67931;BME280;63902;52.000;5.954;2023-02-10T00:44:29;103141.09;;;-0.58;100.00
67931;BME280;63902;52.000;5.954;2023-02-10T00:45:30;103135.75;;;-0.61;100.00
67931;BME280;63902;52.000;5.954;2023-02-10T00:46:31;103155.81;;;-0.59;100.00
67931;BME280;63902;52.000;5.954;2023-02-10T00:47:32;103154.81;;;-0.62;100.00
67931;BME280;63902;52.000;5.954;2023-02-10T00:48:33;103151.41;;;-0.61;100.00
67931;BME280;63902;52.000;5.954;2023-02-10T00:49:33;103153.22;;;-0.59;100.00
67931;BME280;63902;52.000;5.954;2023-02-10T00:50:34;103143.88;;;-0.54;100.00
67931;BME280;63902;52.000;5.954;2023-02-10T00:51:34;103150.13;;;-0.50;100.00
67931;BME280;63902;52.000;5.954;2023-02-10T00:52:34;103145.81;;;-0.50;100.00
67931;BME280;63902;52.000;5.954;2023-02-10T00:53:35;103142.38;;;-0.49;100.00
67931;BME280;63902;52.000;5.954;2023-02-10T00:54:36;103144.09;;;-0.49;100.00
67931;BME280;63902;52.000;5.954;2023-02-10T00:55:36;103152.75;;;-0.50;100.00
67931;BME280;63902;52.000;5.954;2023-02-10T00:56:37;103140.38;;;-0.54;100.00
67931;BME280;63902;52.000;5.954;2023-02-10T00:57:37;103132.56;;;-0.54;100.00
67931;BME280;63902;52.000;5.954;2023-02-10T00:58:38;103150.38;;;-0.44;100.00
67931;BME280;63902;52.000;5.954;2023-02-10T00:59:38;103148.88;;;-0.39;100.00
67931;BME280;63902;52.000;5.954;2023-02-10T01:00:39;103145.41;;;-0.38;100.00
67931;BME280;63902;52.000;5.954;2023-02-10T01:01:41;103155.94;;;-0.36;100.00
67931;BME280;63902;52.000;5.954;2023-02-10T01:02:41;103156.72;;;-0.37;100.00
67931;BME280;63902;52.000;5.954;2023-02-10T01:03:42;103152.22;;;-0.41;100.00
67931;BME280;63902;52.000;5.954;2023-02-10T01:04:42;103153.13;;;-0.41;100.00
67931;BME280;63902;52.000;5.954;2023-02-10T01:05:43;103159.28;;;-0.39;100.00
67931;BME280;63902;52.000;5.954;2023-02-10T01:06:43;103168.16;;;-0.34;100.00
67931;BME280;63902;52.000;5.954;2023-02-10T01:07:44;103162.19;;;-0.31;100.00
67931;BME280;63902;52.000;5.954;2023-02-10T01:08:44;103163.25;;;-0.28;100.00
67931;BME280;63902;52.000;5.954;2023-02-10T01:09:44;103158.91;;;-0.27;100.00
67931;BME280;63902;52.000;5.954;2023-02-10T01:10:45;103163.34;;;-0.25;100.00
67931;BME280;63902;52.000;5.954;2023-02-10T01:11:46;103162.53;;;-0.24;100.00
67931;BME280;63902;52.000;5.954;2023-02-10T01:12:46;103162.47;;;-0.25;100.00
67931;BME280;63902;52.000;5.954;2023-02-10T01:13:46;103164.13;;;-0.27;100.00
67931;BME280;63902;52.000;5.954;2023-02-10T01:14:47;103170.09;;;-0.30;100.00
67931;BME280;63902;52.000;5.954;2023-02-10T01:15:47;103158.66;;;-0.33;100.00
67931;BME280;63902;52.000;5.954;2023-02-10T01:16:49;103148.66;;;-0.43;100.00
67931;BME280;63902;52.000;5.954;2023-02-10T01:17:50;103167.38;;;-0.33;100.00
67931;BME280;63902;52.000;5.954;2023-02-10T01:18:51;103165.72;;;-0.31;100.00
67931;BME280;63902;52.000;5.954;2023-02-10T01:19:52;103172.63;;;-0.31;100.00
67931;BME280;63902;52.000;5.954;2023-02-10T01:20:52;103176.06;;;-0.32;100.00
67931;BME280;63902;52.000;5.954;2023-02-10T01:21:53;103174.34;;;-0.32;100.00
67931;BME280;63902;52.000;5.954;2023-02-10T01:22:53;103173.47;;;-0.32;100.00
67931;BME280;63902;52.000;5.954;2023-02-10T01:23:55;103176.97;;;-0.32;100.00
67931;BME280;63902;52.000;5.954;2023-02-10T01:24:56;103152.91;;;-0.46;100.00
67931;BME280;63902;52.000;5.954;2023-02-10T01:25:58;103177.03;;;-0.30;100.00
67931;BME280;63902;52.000;5.954;2023-02-10T01:26:58;103173.47;;;-0.32;100.00
67931;BME280;63902;52.000;5.954;2023-02-10T01:27:59;103175.31;;;-0.30;100.00
67931;BME280;63902;52.000;5.954;2023-02-10T01:28:59;103177.09;;;-0.29;100.00
67931;BME280;63902;52.000;5.954;2023-02-10T01:30:00;103169.25;;;-0.29;100.00
67931;BME280;63902;52.000;5.954;2023-02-10T01:31:04;103170.97;;;-0.29;100.00
67931;BME280;63902;52.000;5.954;2023-02-10T01:32:06;103166.59;;;-0.30;100.00
67931;BME280;63902;52.000;5.954;2023-02-10T01:33:06;103166.53;;;-0.32;100.00
67931;BME280;63902;52.000;5.954;2023-02-10T01:34:07;103167.41;;;-0.31;100.00
67931;BME280;63902;52.000;5.954;2023-02-10T01:35:07;103166.59;;;-0.30;100.00
67931;BME280;63902;52.000;5.954;2023-02-10T01:36:10;103166.72;;;-0.27;100.00
67931;BME280;63902;52.000;5.954;2023-02-10T01:37:10;103160.63;;;-0.28;100.00
67931;BME280;63902;52.000;5.954;2023-02-10T01:38:11;103161.69;;;-0.23;100.00
67931;BME280;63902;52.000;5.954;2023-02-10T01:39:11;103172.19;;;-0.21;100.00
67931;BME280;63902;52.000;5.954;2023-02-10T01:40:12;103155.34;;;-0.29;100.00
67931;BME280;63902;52.000;5.954;2023-02-10T01:41:13;103171.44;;;-0.18;100.00
67931;BME280;63902;52.000;5.954;2023-02-10T01:42:14;103169.78;;;-0.16;100.00
67931;BME280;63902;52.000;5.954;2023-02-10T01:43:16;103166.41;;;-0.14;100.00
67931;BME280;63902;52.000;5.954;2023-02-10T01:45:06;103155.97;;;-0.14;100.00
67931;BME280;63902;52.000;5.954;2023-02-10T01:46:11;103159.41;;;-0.15;100.00
67931;BME280;63902;52.000;5.954;2023-02-10T01:47:13;103152.44;;;-0.14;100.00
67931;BME280;63902;52.000;5.954;2023-02-10T01:48:14;103153.38;;;-0.14;100.00
67931;BME280;63902;52.000;5.954;2023-02-10T01:49:17;103150.69;;;-0.15;100.00
67931;BME280;63902;52.000;5.954;2023-02-10T01:50:20;103148.06;;;-0.15;100.00
67931;BME280;63902;52.000;5.954;2023-02-10T01:51:24;103155.19;;;-0.11;100.00
67931;BME280;63902;52.000;5.954;2023-02-10T01:52:27;103153.41;;;-0.12;100.00
67931;BME280;63902;52.000;5.954;2023-02-10T01:53:28;103147.31;;;-0.13;100.00
67931;BME280;63902;52.000;5.954;2023-02-10T01:54:30;103153.41;;;-0.12;100.00
67931;BME280;63902;52.000;5.954;2023-02-10T01:55:34;103155.19;;;-0.11;100.00
67931;BME280;63902;52.000;5.954;2023-02-10T01:56:35;103158.63;;;-0.12;100.00
67931;BME280;63902;52.000;5.954;2023-02-10T01:57:37;103162.97;;;-0.13;100.00
67931;BME280;63902;52.000;5.954;2023-02-10T01:58:40;103158.59;;;-0.14;100.00
67931;BME280;63902;52.000;5.954;2023-02-10T01:59:41;103172.50;;;-0.13;100.00
67931;BME280;63902;52.000;5.954;2023-02-10T02:00:42;103174.28;;;-0.12;100.00
67931;BME280;63902;52.000;5.954;2023-02-10T02:01:43;103162.09;;;-0.13;100.00
67931;BME280;63902;52.000;5.954;2023-02-10T02:02:46;103177.78;;;-0.12;100.00
67931;BME280;63902;52.000;5.954;2023-02-10T02:03:47;103174.28;;;-0.12;100.00
67931;BME280;63902;52.000;5.954;2023-02-10T02:04:49;103165.50;;;-0.14;100.00
67931;BME280;63902;52.000;5.954;2023-02-10T02:05:50;103171.66;;;-0.12;100.00
67931;BME280;63902;52.000;5.954;2023-02-10T02:06:50;103166.41;;;-0.14;100.00
67931;BME280;63902;52.000;5.954;2023-02-10T02:07:50;103170.72;;;-0.14;100.00
67931;BME280;63902;52.000;5.954;2023-02-10T02:08:52;103159.41;;;-0.15;100.00
67931;BME280;63902;52.000;5.954;2023-02-10T02:09:53;103167.28;;;-0.13;100.00
67931;BME280;63902;52.000;5.954;2023-02-10T02:11:06;103178.53;;;-0.14;100.00
67931;BME280;63902;52.000;5.954;2023-02-10T02:12:15;103164.63;;;-0.15;100.00
67931;BME280;63902;52.000;5.954;2023-02-10T02:13:28;103165.50;;;-0.14;100.00
67931;BME280;63902;52.000;5.954;2023-02-10T02:14:37;103164.69;;;-0.13;100.00
67931;BME280;63902;52.000;5.954;2023-02-10T02:15:47;103181.97;;;-0.15;100.00
67931;BME280;63902;52.000;5.954;2023-02-10T02:16:59;103179.38;;;-0.15;100.00
67931;BME280;63902;52.000;5.954;2023-02-10T02:18:09;103181.03;;;-0.17;100.00
67931;BME280;63902;52.000;5.954;2023-02-10T02:19:30;103175.75;;;-0.19;100.00
67931;BME280;63902;52.000;5.954;2023-02-10T02:21:00;103178.28;;;-0.20;100.00
67931;BME280;63902;52.000;5.954;2023-02-10T02:22:29;103173.03;;;-0.22;100.00
67931;BME280;63902;52.000;5.954;2023-02-10T02:25:07;103174.69;;;-0.24;100.00
67931;BME280;63902;52.000;5.954;2023-02-10T02:26:43;103179.00;;;-0.25;100.00
67931;BME280;63902;52.000;5.954;2023-02-10T02:27:55;103173.66;;;-0.28;100.00
67931;BME280;63902;52.000;5.954;2023-02-10T02:29:27;103171.06;;;-0.28;100.00
67931;BME280;63902;52.000;5.954;2023-02-10T02:30:45;103175.34;;;-0.28;100.00
67931;BME280;63902;52.000;5.954;2023-02-10T02:31:57;103177.09;;;-0.29;100.00
67931;BME280;63902;52.000;5.954;2023-02-10T02:33:02;103173.66;;;-0.28;100.00
67931;BME280;63902;52.000;5.954;2023-02-10T02:34:07;103173.59;;;-0.29;100.00
67931;BME280;63902;52.000;5.954;2023-02-10T02:35:13;103172.81;;;-0.27;100.00
67931;BME280;63902;52.000;5.954;2023-02-10T02:36:20;103176.31;;;-0.26;100.00
67931;BME280;63902;52.000;5.954;2023-02-10T02:37:23;103173.66;;;-0.28;100.00
67931;BME280;63902;52.000;5.954;2023-02-10T02:38:26;103169.34;;;-0.27;100.00
67931;BME280;63902;52.000;5.954;2023-02-10T02:39:27;103169.97;;;-0.33;100.00
67931;BME280;63902;52.000;5.954;2023-02-10T02:40:28;103172.81;;;-0.27;100.00
67931;BME280;63902;52.000;5.954;2023-02-10T02:41:29;103168.44;;;-0.28;100.00
67931;BME280;63902;52.000;5.954;2023-02-10T02:42:31;103169.25;;;-0.29;100.00
67931;BME280;63902;52.000;5.954;2023-02-10T02:43:32;103169.38;;;-0.26;100.00
67931;BME280;63902;52.000;5.954;2023-02-10T02:44:32;103179.00;;;-0.25;100.00
67931;BME280;63902;52.000;5.954;2023-02-10T02:45:40;103172.94;;;-0.24;100.00
67931;BME280;63902;52.000;5.954;2023-02-10T02:46:52;103175.44;;;-0.27;100.00
67931;BME280;63902;52.000;5.954;2023-02-10T02:48:11;103174.72;;;-0.23;100.00
67931;BME280;63902;52.000;5.954;2023-02-10T02:49:23;103171.22;;;-0.23;100.00
67931;BME280;63902;52.000;5.954;2023-02-10T02:50:30;103158.03;;;-0.28;100.00
67931;BME280;63902;52.000;5.954;2023-02-10T02:51:42;103168.69;;;-0.21;100.00
67931;BME280;63902;52.000;5.954;2023-02-10T02:52:57;103168.69;;;-0.21;100.00
67931;BME280;63902;52.000;5.954;2023-02-10T02:54:01;103167.84;;;-0.20;100.00
67931;BME280;63902;52.000;5.954;2023-02-10T02:55:13;103177.41;;;-0.21;100.00
67931;BME280;63902;52.000;5.954;2023-02-10T02:56:22;103179.13;;;-0.21;100.00
67931;BME280;63902;52.000;5.954;2023-02-10T02:57:32;103156.97;;;-0.31;100.00
67931;BME280;63902;52.000;5.954;2023-02-10T02:58:46;103187.00;;;-0.20;100.00
67931;BME280;63902;52.000;5.954;2023-02-10T02:59:51;103186.13;;;-0.20;100.00
67931;BME280;63902;52.000;5.954;2023-02-10T03:00:54;103185.16;;;-0.23;100.00
67931;BME280;63902;52.000;5.954;2023-02-10T03:02:00;103184.22;;;-0.25;100.00
67931;BME280;63902;52.000;5.954;2023-02-10T03:03:02;103194.78;;;-0.21;100.00
67931;BME280;63902;52.000;5.954;2023-02-10T03:04:03;103191.34;;;-0.20;100.00
67931;BME280;63902;52.000;5.954;2023-02-10T03:05:04;103184.22;;;-0.25;100.00
67931;BME280;63902;52.000;5.954;2023-02-10T03:06:05;103187.00;;;-0.20;100.00
67931;BME280;63902;52.000;5.954;2023-02-10T03:07:06;103181.66;;;-0.23;100.00
67931;BME280;63902;52.000;5.954;2023-02-10T03:08:06;103187.84;;;-0.21;100.00
67931;BME280;63902;52.000;5.954;2023-02-10T03:09:07;103187.00;;;-0.20;100.00
67931;BME280;63902;52.000;5.954;2023-02-10T03:10:07;103187.00;;;-0.20;100.00
67931;BME280;63902;52.000;5.954;2023-02-10T03:11:08;103183.50;;;-0.20;100.00
67931;BME280;63902;52.000;5.954;2023-02-10T03:12:08;103183.50;;;-0.20;100.00
67931;BME280;63902;52.000;5.954;2023-02-10T03:13:09;103182.69;;;-0.19;100.00
67931;BME280;63902;52.000;5.954;2023-02-10T03:14:09;103187.00;;;-0.20;100.00
67931;BME280;63902;52.000;5.954;2023-02-10T03:15:10;103189.69;;;-0.18;100.00
67931;BME280;63902;52.000;5.954;2023-02-10T03:16:10;103189.56;;;-0.21;100.00
67931;BME280;63902;52.000;5.954;2023-02-10T03:17:13;103184.38;;;-0.20;100.00
67931;BME280;63902;52.000;5.954;2023-02-10T03:18:13;103192.22;;;-0.20;100.00
67931;BME280;63902;52.000;5.954;2023-02-10T03:19:14;103192.22;;;-0.20;100.00
67931;BME280;63902;52.000;5.954;2023-02-10T03:20:14;103190.53;;;-0.19;100.00
67931;BME280;63902;52.000;5.954;2023-02-10T03:21:15;103191.34;;;-0.20;100.00
67931;BME280;63902;52.000;5.954;2023-02-10T03:22:15;103194.78;;;-0.21;100.00
67931;BME280;63902;52.000;5.954;2023-02-10T03:23:16;103191.28;;;-0.22;100.00
67931;BME280;63902;52.000;5.954;2023-02-10T03:24:16;103192.94;;;-0.24;100.00
67931;BME280;63902;52.000;5.954;2023-02-10T03:25:17;103192.84;;;-0.26;100.00
67931;BME280;63902;52.000;5.954;2023-02-10T03:26:18;103189.44;;;-0.25;100.00
67931;BME280;63902;52.000;5.954;2023-02-10T03:27:19;103192.84;;;-0.26;100.00
67931;BME280;63902;52.000;5.954;2023-02-10T03:28:19;103192.84;;;-0.26;100.00
67931;BME280;63902;52.000;5.954;2023-02-10T03:29:20;103196.31;;;-0.27;100.00
67931;BME280;63902;52.000;5.954;2023-02-10T03:30:20;103185.75;;;-0.30;100.00
67931;BME280;63902;52.000;5.954;2023-02-10T03:31:21;103187.63;;;-0.26;100.00
67931;BME280;63902;52.000;5.954;2023-02-10T03:32:23;103192.84;;;-0.26;100.00
67931;BME280;63902;52.000;5.954;2023-02-10T03:33:23;103191.00;;;-0.28;100.00
67931;BME280;63902;52.000;5.954;2023-02-10T03:34:24;103191.09;;;-0.27;100.00
67931;BME280;63902;52.000;5.954;2023-02-10T03:35:24;103188.41;;;-0.28;100.00
67931;BME280;63902;52.000;5.954;2023-02-10T03:36:25;103188.28;;;-0.31;100.00
67931;BME280;63902;52.000;5.954;2023-02-10T03:37:25;103193.63;;;-0.28;100.00
67931;BME280;63902;52.000;5.954;2023-02-10T03:38:26;103191.00;;;-0.28;100.00
67931;BME280;63902;52.000;5.954;2023-02-10T03:39:27;103190.97;;;-0.30;100.00
67931;BME280;63902;52.000;5.954;2023-02-10T03:40:27;103185.66;;;-0.31;100.00
67931;BME280;63902;52.000;5.954;2023-02-10T03:41:28;103198.78;;;-0.30;100.00
67931;BME280;63902;52.000;5.954;2023-02-10T03:42:28;103190.97;;;-0.30;100.00
67931;BME280;63902;52.000;5.954;2023-02-10T03:43:29;103202.28;;;-0.29;100.00
67931;BME280;63902;52.000;5.954;2023-02-10T03:44:29;103189.19;;;-0.31;100.00
67931;BME280;63902;52.000;5.954;2023-02-10T03:45:30;103179.41;;;-0.36;100.00
67931;BME280;63902;52.000;5.954;2023-02-10T03:46:31;103197.00;;;-0.31;100.00
67931;BME280;63902;52.000;5.954;2023-02-10T03:47:32;103184.66;;;-0.35;100.00
67931;BME280;63902;52.000;5.954;2023-02-10T03:48:33;103195.97;;;-0.34;100.00
67931;BME280;63902;52.000;5.954;2023-02-10T03:49:33;103188.03;;;-0.37;100.00
67931;BME280;63902;52.000;5.954;2023-02-10T03:50:34;103184.72;;;-0.33;100.00
67931;BME280;63902;52.000;5.954;2023-02-10T03:51:35;103187.34;;;-0.33;100.00
67931;BME280;63902;52.000;5.954;2023-02-10T03:52:35;103188.22;;;-0.33;100.00
67931;BME280;63902;52.000;5.954;2023-02-10T03:53:35;103186.28;;;-0.37;100.00
67931;BME280;63902;52.000;5.954;2023-02-10T03:54:36;103198.56;;;-0.34;100.00
67931;BME280;63902;52.000;5.954;2023-02-10T03:55:37;103198.53;;;-0.36;100.00
67931;BME280;63902;52.000;5.954;2023-02-10T03:56:37;103200.25;;;-0.36;100.00
67931;BME280;63902;52.000;5.954;2023-02-10T03:57:37;103190.72;;;-0.36;100.00
67931;BME280;63902;52.000;5.954;2023-02-10T03:58:38;103194.13;;;-0.37;100.00
67931;BME280;63902;52.000;5.954;2023-02-10T03:59:38;103194.06;;;-0.38;100.00
67931;BME280;63902;52.000;5.954;2023-02-10T04:00:39;103194.88;;;-0.39;100.00
67931;BME280;63902;52.000;5.954;2023-02-10T04:01:39;103196.69;;;-0.38;100.00
67931;BME280;63902;52.000;5.954;2023-02-10T04:02:41;103199.34;;;-0.37;100.00
67931;BME280;63902;52.000;5.954;2023-02-10T04:03:42;103199.34;;;-0.37;100.00
67931;BME280;63902;52.000;5.954;2023-02-10T04:04:42;103194.88;;;-0.39;100.00
67931;BME280;63902;52.000;5.954;2023-02-10T04:05:43;103195.81;;;-0.39;100.00
67931;BME280;63902;52.000;5.954;2023-02-10T04:06:43;103191.38;;;-0.40;100.00
67931;BME280;63902;52.000;5.954;2023-02-10T04:07:44;103183.44;;;-0.43;100.00
67931;BME280;63902;52.000;5.954;2023-02-10T04:08:46;103189.63;;;-0.41;100.00
67931;BME280;63902;52.000;5.954;2023-02-10T04:09:46;103191.34;;;-0.41;100.00
67931;BME280;63902;52.000;5.954;2023-02-10T04:10:47;103184.19;;;-0.46;100.00
67931;BME280;63902;52.000;5.954;2023-02-10T04:11:49;103192.16;;;-0.42;100.00
67931;BME280;63902;52.000;5.954;2023-02-10T04:12:49;103190.28;;;-0.45;100.00
67931;BME280;63902;52.000;5.954;2023-02-10T04:13:50;103199.03;;;-0.44;100.00
67931;BME280;63902;52.000;5.954;2023-02-10T04:14:50;103195.50;;;-0.45;100.00
67931;BME280;63902;52.000;5.954;2023-02-10T04:16:00;103184.91;;;-0.50;100.00
67931;BME280;63902;52.000;5.954;2023-02-10T04:17:01;103198.13;;;-0.45;100.00
67931;BME280;63902;52.000;5.954;2023-02-10T04:18:03;103195.50;;;-0.45;100.00
67931;BME280;63902;52.000;5.954;2023-02-10T04:19:03;103191.22;;;-0.44;100.00
67931;BME280;63902;52.000;5.954;2023-02-10T04:20:04;103201.66;;;-0.44;100.00
67931;BME280;63902;52.000;5.954;2023-02-10T04:21:07;103189.41;;;-0.46;100.00
67931;BME280;63902;52.000;5.954;2023-02-10T04:22:07;103196.44;;;-0.44;100.00
67931;BME280;63902;52.000;5.954;2023-02-10T04:23:08;103198.97;;;-0.46;100.00
67931;BME280;63902;52.000;5.954;2023-02-10T04:24:08;103190.03;;;-0.51;100.00
67931;BME280;63902;52.000;5.954;2023-02-10T04:25:09;103197.09;;;-0.49;100.00
67931;BME280;63902;52.000;5.954;2023-02-10T04:26:09;103198.06;;;-0.47;100.00
67931;BME280;63902;52.000;5.954;2023-02-10T04:27:10;103202.41;;;-0.47;100.00
67931;BME280;63902;52.000;5.954;2023-02-10T04:28:10;103200.69;;;-0.47;100.00
67931;BME280;63902;52.000;5.954;2023-02-10T04:29:11;103201.50;;;-0.48;100.00
67931;BME280;63902;52.000;5.954;2023-02-10T04:30:11;103200.56;;;-0.50;100.00
67931;BME280;63902;52.000;5.954;2023-02-10T04:31:12;103198.81;;;-0.49;100.00
67931;BME280;63902;52.000;5.954;2023-02-10T04:32:12;103200.56;;;-0.50;100.00
67931;BME280;63902;52.000;5.954;2023-02-10T04:33:14;103197.88;;;-0.51;100.00
67931;BME280;63902;52.000;5.954;2023-02-10T04:34:15;103197.81;;;-0.53;100.00
67931;BME280;63902;52.000;5.954;2023-02-10T04:35:15;103202.16;;;-0.53;100.00
67931;BME280;63902;52.000;5.954;2023-02-10T04:36:16;103191.38;;;-0.61;100.00
67931;BME280;63902;52.000;5.954;2023-02-10T04:37:17;103202.94;;;-0.54;100.00
67931;BME280;63902;52.000;5.954;2023-02-10T04:38:17;103198.56;;;-0.55;100.00
67931;BME280;63902;52.000;5.954;2023-02-10T04:39:18;103198.50;;;-0.57;100.00
67931;BME280;63902;52.000;5.954;2023-02-10T04:40:18;103201.19;;;-0.55;100.00
67931;BME280;63902;52.000;5.954;2023-02-10T04:41:19;103201.09;;;-0.57;100.00
67931;BME280;63902;52.000;5.954;2023-02-10T04:42:19;103207.19;;;-0.56;100.00
67931;BME280;63902;52.000;5.954;2023-02-10T04:43:20;103212.34;;;-0.58;100.00
67931;BME280;63902;52.000;5.954;2023-02-10T04:44:21;103209.75;;;-0.58;100.00
67931;BME280;63902;52.000;5.954;2023-02-10T04:45:22;103204.47;;;-0.59;100.00
67931;BME280;63902;52.000;5.954;2023-02-10T04:46:22;103204.53;;;-0.58;100.00
67931;BME280;63902;52.000;5.954;2023-02-10T04:47:24;103206.25;;;-0.58;100.00
67931;BME280;63902;52.000;5.954;2023-02-10T04:48:26;103208.88;;;-0.58;100.00
67931;BME280;63902;52.000;5.954;2023-02-10T04:49:27;103203.66;;;-0.58;100.00
67931;BME280;63902;52.000;5.954;2023-02-10T04:50:27;103207.91;;;-0.60;100.00
67931;BME280;63902;52.000;5.954;2023-02-10T04:51:28;103203.53;;;-0.61;100.00
67931;BME280;63902;52.000;5.954;2023-02-10T04:52:28;103210.56;;;-0.59;100.00
67931;BME280;63902;52.000;5.954;2023-02-10T04:53:29;103204.47;;;-0.59;100.00
67931;BME280;63902;52.000;5.954;2023-02-10T04:54:29;103211.47;;;-0.58;100.00
67931;BME280;63902;52.000;5.954;2023-02-10T04:55:30;103215.84;;;-0.57;100.00
67931;BME280;63902;52.000;5.954;2023-02-10T04:56:30;103215.78;;;-0.59;100.00
67931;BME280;63902;52.000;5.954;2023-02-10T04:57:31;103214.75;;;-0.62;100.00
67931;BME280;63902;52.000;5.954;2023-02-10T04:58:32;103219.28;;;-0.58;100.00
67931;BME280;63902;52.000;5.954;2023-02-10T04:59:32;103214.09;;;-0.58;100.00
67931;BME280;63902;52.000;5.954;2023-02-10T05:00:33;103219.28;;;-0.58;100.00
67931;BME280;63902;52.000;5.954;2023-02-10T05:01:33;103220.94;;;-0.60;100.00
67931;BME280;63902;52.000;5.954;2023-02-10T05:02:34;103214.97;;;-0.58;100.00
67931;BME280;63902;52.000;5.954;2023-02-10T05:03:36;103214.09;;;-0.58;100.00
67931;BME280;63902;52.000;5.954;2023-02-10T05:04:36;103212.84;;;-0.66;100.00
67931;BME280;63902;52.000;5.954;2023-02-10T05:05:37;103218.38;;;-0.59;100.00
67931;BME280;63902;52.000;5.954;2023-02-10T05:06:37;103215.84;;;-0.57;100.00
67931;BME280;63902;52.000;5.954;2023-02-10T05:07:38;103219.28;;;-0.58;100.00
67931;BME280;63902;52.000;5.954;2023-02-10T05:08:38;103213.94;;;-0.61;100.00
67931;BME280;63902;52.000;5.954;2023-02-10T05:09:39;103213.78;;;-0.64;100.00
67931;BME280;63902;52.000;5.954;2023-02-10T05:10:40;103224.50;;;-0.58;100.00
67931;BME280;63902;52.000;5.954;2023-02-10T05:11:40;103216.59;;;-0.60;100.00
67931;BME280;63902;52.000;5.954;2023-02-10T05:12:41;103226.19;;;-0.59;100.00
67931;BME280;63902;52.000;5.954;2023-02-10T05:13:41;103215.78;;;-0.59;100.00
67931;BME280;63902;52.000;5.954;2023-02-10T05:14:42;103216.69;;;-0.58;100.00
67931;BME280;63902;52.000;5.954;2023-02-10T05:15:42;103214.13;;;-0.57;100.00
67931;BME280;63902;52.000;5.954;2023-02-10T05:16:43;103206.13;;;-0.61;100.00
67931;BME280;63902;52.000;5.954;2023-02-10T05:17:43;103212.28;;;-0.59;100.00
67931;BME280;63902;52.000;5.954;2023-02-10T05:18:45;103220.19;;;-0.58;100.00
67931;BME280;63902;52.000;5.954;2023-02-10T05:19:46;103211.41;;;-0.60;100.00
67931;BME280;63902;52.000;5.954;2023-02-10T05:20:46;103217.50;;;-0.59;100.00
67931;BME280;63902;52.000;5.954;2023-02-10T05:21:47;103213.03;;;-0.62;100.00
67931;BME280;63902;52.000;5.954;2023-02-10T05:22:47;103217.44;;;-0.61;100.00
67931;BME280;63902;52.000;5.954;2023-02-10T05:23:48;103214.00;;;-0.60;100.00